Terminal Aerodrome Forecast
Issued by NWS

Home | Current Version | Previous Version | Text Only | Print | Product List | Glossary On
Versions: 1 2 3 4 5 6 7 8 9 10 11 12 13 14 15
000
FTUS41 KLWX 301135
TAFMTN
TAF
KMTN 301135Z 3012/3112 17007KT P6SM BKN015
     FM301400 19008KT P6SM SCT025
     FM301700 18011KT P6SM SCT050
     FM310600 18007KT P6SM BKN060
     FM310700 18007KT P6SM SCT060=

USA.gov is the U.S. government's official web portal to all federal, state and local government web resources and services.